sensor_id;sensor_type;location;lat;lon;timestamp;pressure;altitude;pressure_sealevel;temperature;humidity
46015;BME280;36844;51.898;-0.874;2022-11-23T00:00:15;98112.78;;;18.38;
46015;BME280;36844;51.898;-0.874;2022-11-23T00:02:40;98098.25;;;18.36;
46015;BME280;36844;51.898;-0.874;2022-11-23T00:05:06;98095.28;;;18.34;
46015;BME280;36844;51.898;-0.874;2022-11-23T00:07:32;98100.38;;;18.32;
46015;BME280;36844;51.898;-0.874;2022-11-23T00:09:57;98102.03;;;18.29;
46015;BME280;36844;51.898;-0.874;2022-11-23T00:12:23;98101.75;;;18.27;
46015;BME280;36844;51.898;-0.874;2022-11-23T00:14:48;98100.25;;;18.26;
46015;BME280;36844;51.898;-0.874;2022-11-23T00:17:13;98111.19;;;18.23;
46015;BME280;36844;51.898;-0.874;2022-11-23T00:19:38;98104.28;;;18.22;
46015;BME280;36844;51.898;-0.874;2022-11-23T00:22:03;98103.28;;;18.19;
46015;BME280;36844;51.898;-0.874;2022-11-23T00:24:29;98103.69;;;18.18;
46015;BME280;36844;51.898;-0.874;2022-11-23T00:26:54;98114.22;;;18.16;
46015;BME280;36844;51.898;-0.874;2022-11-23T00:29:19;98114.63;;;18.14;
46015;BME280;36844;51.898;-0.874;2022-11-23T00:31:44;98106.28;;;18.12;
46015;BME280;36844;51.898;-0.874;2022-11-23T00:34:09;98105.97;;;18.10;
46015;BME280;36844;51.898;-0.874;2022-11-23T00:36:35;98107.66;;;18.08;
46015;BME280;36844;51.898;-0.874;2022-11-23T00:39:00;98099.25;;;18.06;
46015;BME280;36844;51.898;-0.874;2022-11-23T00:41:26;98100.91;;;18.03;
46015;BME280;36844;51.898;-0.874;2022-11-23T00:43:51;98092.56;;;18.01;
46015;BME280;36844;51.898;-0.874;2022-11-23T00:48:42;98096.13;;;17.98;
46015;BME280;36844;51.898;-0.874;2022-11-23T00:51:09;98098.53;;;17.96;
46015;BME280;36844;51.898;-0.874;2022-11-23T00:53:35;98093.63;;;17.95;
46015;BME280;36844;51.898;-0.874;2022-11-23T00:56:00;98098.69;;;17.93;
46015;BME280;36844;51.898;-0.874;2022-11-23T00:58:26;98095.72;;;17.91;
46015;BME280;36844;51.898;-0.874;2022-11-23T01:03:29;98087.03;;;17.87;
46015;BME280;36844;51.898;-0.874;2022-11-23T01:05:54;98090.94;;;17.86;
46015;BME280;36844;51.898;-0.874;2022-11-23T01:08:19;98086.75;;;17.85;
46015;BME280;36844;51.898;-0.874;2022-11-23T01:10:44;98086.44;;;17.83;
46015;BME280;36844;51.898;-0.874;2022-11-23T01:13:10;98076.59;;;17.80;
46015;BME280;36844;51.898;-0.874;2022-11-23T01:15:35;98068.97;;;17.78;
46015;BME280;36844;51.898;-0.874;2022-11-23T01:18:00;98062.53;;;17.75;
46015;BME280;36844;51.898;-0.874;2022-11-23T01:20:25;98054.16;;;17.73;
46015;BME280;36844;51.898;-0.874;2022-11-23T01:22:51;98055.38;;;17.72;
46015;BME280;36844;51.898;-0.874;2022-11-23T01:25:17;98050.44;;;17.71;
46015;BME280;36844;51.898;-0.874;2022-11-23T01:27:42;98050.91;;;17.69;
46015;BME280;36844;51.898;-0.874;2022-11-23T01:30:07;98046.72;;;17.68;
46015;BME280;36844;51.898;-0.874;2022-11-23T01:32:33;98039.81;;;17.67;
46015;BME280;36844;51.898;-0.874;2022-11-23T01:34:58;98030.72;;;17.65;
46015;BME280;36844;51.898;-0.874;2022-11-23T01:37:23;98038.03;;;17.64;
46015;BME280;36844;51.898;-0.874;2022-11-23T01:39:48;98048.50;;;17.62;
46015;BME280;36844;51.898;-0.874;2022-11-23T01:42:14;98033.56;;;17.61;
46015;BME280;36844;51.898;-0.874;2022-11-23T01:44:42;98030.13;;;17.61;
46015;BME280;36844;51.898;-0.874;2022-11-23T01:47:07;98034.50;;;17.58;
46015;BME280;36844;51.898;-0.874;2022-11-23T01:49:38;98029.53;;;17.57;
46015;BME280;36844;51.898;-0.874;2022-11-23T01:52:09;98030.72;;;17.56;
46015;BME280;36844;51.898;-0.874;2022-11-23T01:54:37;98021.88;;;17.55;
46015;BME280;36844;51.898;-0.874;2022-11-23T01:57:05;98018.94;;;17.53;
46015;BME280;36844;51.898;-0.874;2022-11-23T01:59:32;98012.03;;;17.52;
46015;BME280;36844;51.898;-0.874;2022-11-23T02:01:57;98004.47;;;17.51;
46015;BME280;36844;51.898;-0.874;2022-11-23T02:04:24;98014.47;;;17.50;
46015;BME280;36844;51.898;-0.874;2022-11-23T02:06:51;98006.06;;;17.48;
46015;BME280;36844;51.898;-0.874;2022-11-23T02:09:16;97999.25;;;17.47;
46015;BME280;36844;51.898;-0.874;2022-11-23T02:11:42;97993.53;;;17.45;
46015;BME280;36844;51.898;-0.874;2022-11-23T02:14:07;97978.56;;;17.44;
46015;BME280;36844;51.898;-0.874;2022-11-23T02:16:32;97968.31;;;17.43;
46015;BME280;36844;51.898;-0.874;2022-11-23T02:18:58;97966.78;;;17.42;
46015;BME280;36844;51.898;-0.874;2022-11-23T02:21:23;97966.03;;;17.41;
46015;BME280;36844;51.898;-0.874;2022-11-23T02:23:51;97961.84;;;17.40;
46015;BME280;36844;51.898;-0.874;2022-11-23T02:26:24;97969.66;;;17.38;
46015;BME280;36844;51.898;-0.874;2022-11-23T02:28:51;97962.00;;;17.37;
46015;BME280;36844;51.898;-0.874;2022-11-23T02:31:18;97954.69;;;17.37;
46015;BME280;36844;51.898;-0.874;2022-11-23T02:33:43;97952.91;;;17.34;
46015;BME280;36844;51.898;-0.874;2022-11-23T02:38:46;97949.94;;;17.32;
46015;BME280;36844;51.898;-0.874;2022-11-23T02:41:11;97943.06;;;17.31;
46015;BME280;36844;51.898;-0.874;2022-11-23T02:43:36;97934.66;;;17.29;
46015;BME280;36844;51.898;-0.874;2022-11-23T02:46:02;97934.66;;;17.29;
46015;BME280;36844;51.898;-0.874;2022-11-23T02:48:27;97924.41;;;17.28;
46015;BME280;36844;51.898;-0.874;2022-11-23T02:50:52;97924.84;;;17.26;
46015;BME280;36844;51.898;-0.874;2022-11-23T02:53:18;97926.00;;;17.25;
46015;BME280;36844;51.898;-0.874;2022-11-23T02:55:43;97922.59;;;17.25;
46015;BME280;36844;51.898;-0.874;2022-11-23T02:58:08;97922.31;;;17.23;
46015;BME280;36844;51.898;-0.874;2022-11-23T03:00:34;97927.69;;;17.23;
46015;BME280;36844;51.898;-0.874;2022-11-23T03:02:59;97917.38;;;17.21;
46015;BME280;36844;51.898;-0.874;2022-11-23T03:05:25;97915.91;;;17.20;
46015;BME280;36844;51.898;-0.874;2022-11-23T03:07:50;97897.50;;;17.19;
46015;BME280;36844;51.898;-0.874;2022-11-23T03:10:16;97896.75;;;17.18;
46015;BME280;36844;51.898;-0.874;2022-11-23T03:12:42;97900.66;;;17.17;
46015;BME280;36844;51.898;-0.874;2022-11-23T03:15:07;97902.63;;;17.17;
46015;BME280;36844;51.898;-0.874;2022-11-23T03:17:32;97895.72;;;17.16;
46015;BME280;36844;51.898;-0.874;2022-11-23T03:19:59;97894.22;;;17.15;
46015;BME280;36844;51.898;-0.874;2022-11-23T03:22:24;97887.06;;;17.12;
46015;BME280;36844;51.898;-0.874;2022-11-23T03:24:49;97883.22;;;17.13;
46015;BME280;36844;51.898;-0.874;2022-11-23T03:27:15;97886.31;;;17.11;
46015;BME280;36844;51.898;-0.874;2022-11-23T03:29:40;97885.56;;;17.11;
46015;BME280;36844;51.898;-0.874;2022-11-23T03:32:05;97884.09;;;17.10;
46015;BME280;36844;51.898;-0.874;2022-11-23T03:34:30;97880.09;;;17.05;
46015;BME280;36844;51.898;-0.874;2022-11-23T03:36:56;97883.03;;;17.07;
46015;BME280;36844;51.898;-0.874;2022-11-23T03:39:21;97889.63;;;17.06;
46015;BME280;36844;51.898;-0.874;2022-11-23T03:41:46;97885.47;;;17.05;
46015;BME280;36844;51.898;-0.874;2022-11-23T03:44:11;97877.81;;;17.04;
46015;BME280;36844;51.898;-0.874;2022-11-23T03:46:37;97875.13;;;17.04;
46015;BME280;36844;51.898;-0.874;2022-11-23T03:49:02;97859.47;;;17.02;
46015;BME280;36844;51.898;-0.874;2022-11-23T03:51:27;97854.53;;;17.01;
46015;BME280;36844;51.898;-0.874;2022-11-23T03:53:52;97854.53;;;17.01;
46015;BME280;36844;51.898;-0.874;2022-11-23T03:56:17;97844.22;;;16.99;
46015;BME280;36844;51.898;-0.874;2022-11-23T03:58:44;97842.00;;;16.98;
46015;BME280;36844;51.898;-0.874;2022-11-23T04:01:09;97842.44;;;16.96;
46015;BME280;36844;51.898;-0.874;2022-11-23T04:03:34;97830.94;;;16.96;
46015;BME280;36844;51.898;-0.874;2022-11-23T04:05:59;97824.09;;;16.95;
46015;BME280;36844;51.898;-0.874;2022-11-23T04:08:25;97824.56;;;16.93;
46015;BME280;36844;51.898;-0.874;2022-11-23T04:10:50;97815.72;;;16.93;
46015;BME280;36844;51.898;-0.874;2022-11-23T04:13:15;97817.66;;;16.92;
46015;BME280;36844;51.898;-0.874;2022-11-23T04:15:41;97818.88;;;16.91;
46015;BME280;36844;51.898;-0.874;2022-11-23T04:18:06;97806.63;;;16.90;
46015;BME280;36844;51.898;-0.874;2022-11-23T04:20:31;97801.25;;;16.90;
46015;BME280;36844;51.898;-0.874;2022-11-23T04:22:56;97799.78;;;16.89;
46015;BME280;36844;51.898;-0.874;2022-11-23T04:25:21;97791.41;;;16.87;
46015;BME280;36844;51.898;-0.874;2022-11-23T04:27:47;97784.53;;;16.86;
46015;BME280;36844;51.898;-0.874;2022-11-23T04:30:12;97778.44;;;16.86;
46015;BME280;36844;51.898;-0.874;2022-11-23T04:32:37;97771.56;;;16.85;
46015;BME280;36844;51.898;-0.874;2022-11-23T04:35:03;97783.50;;;16.83;
46015;BME280;36844;51.898;-0.874;2022-11-23T04:37:28;97773.94;;;16.83;
46015;BME280;36844;51.898;-0.874;2022-11-23T04:39:53;97762.47;;;16.82;
46015;BME280;36844;51.898;-0.874;2022-11-23T04:42:18;97762.16;;;16.80;
46015;BME280;36844;51.898;-0.874;2022-11-23T04:44:44;97744.56;;;16.79;
46015;BME280;36844;51.898;-0.874;2022-11-23T04:47:10;97731.56;;;16.77;
46015;BME280;36844;51.898;-0.874;2022-11-23T04:49:35;97741.56;;;16.77;
46015;BME280;36844;51.898;-0.874;2022-11-23T04:52:00;97732.00;;;16.76;
46015;BME280;36844;51.898;-0.874;2022-11-23T04:54:25;97726.63;;;16.76;
46015;BME280;36844;51.898;-0.874;2022-11-23T04:56:51;97723.69;;;16.74;
46015;BME280;36844;51.898;-0.874;2022-11-23T04:59:18;97725.63;;;16.73;
46015;BME280;36844;51.898;-0.874;2022-11-23T05:01:43;97724.88;;;16.73;
46015;BME280;36844;51.898;-0.874;2022-11-23T05:04:08;97730.25;;;16.73;
46015;BME280;36844;51.898;-0.874;2022-11-23T05:06:34;97729.94;;;16.71;
46015;BME280;36844;51.898;-0.874;2022-11-23T05:08:59;97735.31;;;16.71;
46015;BME280;36844;51.898;-0.874;2022-11-23T05:11:24;97735.78;;;16.69;
46015;BME280;36844;51.898;-0.874;2022-11-23T05:13:51;97736.22;;;16.68;
46015;BME280;36844;51.898;-0.874;2022-11-23T05:16:16;97728.91;;;16.68;
46015;BME280;36844;51.898;-0.874;2022-11-23T05:18:41;97725.19;;;16.66;
46015;BME280;36844;51.898;-0.874;2022-11-23T05:21:06;97717.13;;;16.66;
46015;BME280;36844;51.898;-0.874;2022-11-23T05:23:32;97718.31;;;16.65;
46015;BME280;36844;51.898;-0.874;2022-11-23T05:25:57;97718.78;;;16.63;
46015;BME280;36844;51.898;-0.874;2022-11-23T05:28:22;97710.72;;;16.63;
46015;BME280;36844;51.898;-0.874;2022-11-23T05:30:47;97703.88;;;16.62;
46015;BME280;36844;51.898;-0.874;2022-11-23T05:33:13;97703.88;;;16.62;
46015;BME280;36844;51.898;-0.874;2022-11-23T05:35:38;97701.63;;;16.61;
46015;BME280;36844;51.898;-0.874;2022-11-23T05:38:04;97689.38;;;16.60;
46015;BME280;36844;51.898;-0.874;2022-11-23T05:40:29;97685.97;;;16.59;
46015;BME280;36844;51.898;-0.874;2022-11-23T05:42:58;97677.16;;;16.59;
46015;BME280;36844;51.898;-0.874;2022-11-23T05:45:23;97663.00;;;16.58;
46015;BME280;36844;51.898;-0.874;2022-11-23T05:47:49;97650.00;;;16.57;
46015;BME280;36844;51.898;-0.874;2022-11-23T05:50:15;97643.16;;;16.56;
46015;BME280;36844;51.898;-0.874;2022-11-23T05:52:40;97635.53;;;16.54;
46015;BME280;36844;51.898;-0.874;2022-11-23T05:55:05;97638.22;;;16.54;
46015;BME280;36844;51.898;-0.874;2022-11-23T05:57:31;97637.47;;;16.54;
46015;BME280;36844;51.898;-0.874;2022-11-23T05:59:56;97617.19;;;16.53;
46015;BME280;36844;51.898;-0.874;2022-11-23T06:02:21;97608.41;;;16.52;
46015;BME280;36844;51.898;-0.874;2022-11-23T06:04:46;97594.22;;;16.52;
46015;BME280;36844;51.898;-0.874;2022-11-23T06:07:11;97587.38;;;16.51;
46015;BME280;36844;51.898;-0.874;2022-11-23T06:09:37;97585.13;;;16.49;
46015;BME280;36844;51.898;-0.874;2022-11-23T06:12:02;97577.06;;;16.49;
46015;BME280;36844;51.898;-0.874;2022-11-23T06:14:27;97579.75;;;16.49;
46015;BME280;36844;51.898;-0.874;2022-11-23T06:16:53;97578.28;;;16.48;
46015;BME280;36844;51.898;-0.874;2022-11-23T06:19:18;97580.97;;;16.48;
46015;BME280;36844;51.898;-0.874;2022-11-23T06:21:43;97576.81;;;16.47;
46015;BME280;36844;51.898;-0.874;2022-11-23T06:24:09;97562.63;;;16.47;
46015;BME280;36844;51.898;-0.874;2022-11-23T06:26:34;97557.25;;;16.47;
46015;BME280;36844;51.898;-0.874;2022-11-23T06:29:00;97547.69;;;16.46;
46015;BME280;36844;51.898;-0.874;2022-11-23T06:31:25;97540.84;;;16.45;
46015;BME280;36844;51.898;-0.874;2022-11-23T06:33:50;97539.63;;;16.46;
46015;BME280;36844;51.898;-0.874;2022-11-23T06:36:16;97536.94;;;16.46;
46015;BME280;36844;51.898;-0.874;2022-11-23T06:38:41;97530.09;;;16.45;
46015;BME280;36844;51.898;-0.874;2022-11-23T06:41:06;97525.91;;;16.44;
46015;BME280;36844;51.898;-0.874;2022-11-23T06:43:31;97517.88;;;16.44;
46015;BME280;36844;51.898;-0.874;2022-11-23T06:45:57;97519.06;;;16.43;
46015;BME280;36844;51.898;-0.874;2022-11-23T06:48:22;97510.28;;;16.42;
46015;BME280;36844;51.898;-0.874;2022-11-23T06:50:47;97500.72;;;16.41;
46015;BME280;36844;51.898;-0.874;2022-11-23T06:53:13;97499.53;;;16.42;
46015;BME280;36844;51.898;-0.874;2022-11-23T06:55:38;97491.47;;;16.42;
46015;BME280;36844;51.898;-0.874;2022-11-23T06:58:04;97488.78;;;16.42;
46015;BME280;36844;51.898;-0.874;2022-11-23T07:00:30;97496.38;;;16.44;
46015;BME280;36844;51.898;-0.874;2022-11-23T07:02:55;97494.44;;;16.44;
46015;BME280;36844;51.898;-0.874;2022-11-23T07:05:21;97491.31;;;16.46;
46015;BME280;36844;51.898;-0.874;2022-11-23T07:07:46;97495.50;;;16.47;
46015;BME280;36844;51.898;-0.874;2022-11-23T07:10:12;97493.81;;;16.49;
46015;BME280;36844;51.898;-0.874;2022-11-23T07:12:37;97488.75;;;16.51;
46015;BME280;36844;51.898;-0.874;2022-11-23T07:15:03;97469.47;;;16.53;
46015;BME280;36844;51.898;-0.874;2022-11-23T07:17:28;97460.50;;;16.56;
46015;BME280;36844;51.898;-0.874;2022-11-23T07:19:53;97454.25;;;16.59;
46015;BME280;36844;51.898;-0.874;2022-11-23T07:22:20;97442.56;;;16.62;
46015;BME280;36844;51.898;-0.874;2022-11-23T07:24:45;97442.38;;;16.65;
46015;BME280;36844;51.898;-0.874;2022-11-23T07:27:11;97426.09;;;16.69;
46015;BME280;36844;51.898;-0.874;2022-11-23T07:29:36;97428.59;;;16.72;
46015;BME280;36844;51.898;-0.874;2022-11-23T07:32:01;97431.09;;;16.76;
46015;BME280;36844;51.898;-0.874;2022-11-23T07:34:27;97416.75;;;16.79;
46015;BME280;36844;51.898;-0.874;2022-11-23T07:36:52;97422.69;;;16.83;
46015;BME280;36844;51.898;-0.874;2022-11-23T07:39:18;97419.84;;;16.87;
46015;BME280;36844;51.898;-0.874;2022-11-23T07:41:43;97415.03;;;16.91;
46015;BME280;36844;51.898;-0.874;2022-11-23T07:44:08;97408.75;;;16.94;
46015;BME280;36844;51.898;-0.874;2022-11-23T07:46:33;97408.81;;;16.99;
46015;BME280;36844;51.898;-0.874;2022-11-23T07:48:59;97405.22;;;17.02;
46015;BME280;36844;51.898;-0.874;2022-11-23T07:51:26;97398.19;;;17.05;
46015;BME280;36844;51.898;-0.874;2022-11-23T07:53:51;97398.00;;;17.08;
46015;BME280;36844;51.898;-0.874;2022-11-23T07:56:17;97385.09;;;17.12;
46015;BME280;36844;51.898;-0.874;2022-11-23T07:58:42;97381.03;;;17.17;
46015;BME280;36844;51.898;-0.874;2022-11-23T08:01:07;97371.28;;;17.19;
46015;BME280;36844;51.898;-0.874;2022-11-23T08:03:32;97370.34;;;17.22;
46015;BME280;36844;51.898;-0.874;2022-11-23T08:05:58;97369.41;;;17.25;
46015;BME280;36844;51.898;-0.874;2022-11-23T08:08:23;97373.91;;;17.28;
46015;BME280;36844;51.898;-0.874;2022-11-23T08:10:48;97372.19;;;17.31;
46015;BME280;36844;51.898;-0.874;2022-11-23T08:13:13;97363.94;;;17.34;
46015;BME280;36844;51.898;-0.874;2022-11-23T08:15:39;97369.13;;;17.38;
46015;BME280;36844;51.898;-0.874;2022-11-23T08:18:04;97360.88;;;17.41;
46015;BME280;36844;51.898;-0.874;2022-11-23T08:20:29;97357.72;;;17.43;
46015;BME280;36844;51.898;-0.874;2022-11-23T08:22:55;97364.09;;;17.45;
46015;BME280;36844;51.898;-0.874;2022-11-23T08:25:24;97357.03;;;17.48;
46015;BME280;36844;51.898;-0.874;2022-11-23T08:27:56;97362.72;;;17.50;
46015;BME280;36844;51.898;-0.874;2022-11-23T08:30:21;97368.34;;;17.52;
46015;BME280;36844;51.898;-0.874;2022-11-23T08:32:46;97363.25;;;17.54;
46015;BME280;36844;51.898;-0.874;2022-11-23T08:35:11;97362.75;;;17.55;
46015;BME280;36844;51.898;-0.874;2022-11-23T08:37:37;97346.94;;;17.57;
46015;BME280;36844;51.898;-0.874;2022-11-23T08:40:02;97350.38;;;17.58;
46015;BME280;36844;51.898;-0.874;2022-11-23T08:42:27;97359.44;;;17.60;
46015;BME280;36844;51.898;-0.874;2022-11-23T08:44:52;97355.56;;;17.61;
46015;BME280;36844;51.898;-0.874;2022-11-23T08:47:17;97338.91;;;17.63;
46015;BME280;36844;51.898;-0.874;2022-11-23T08:49:43;97374.63;;;17.63;
46015;BME280;36844;51.898;-0.874;2022-11-23T08:52:08;97373.44;;;17.64;
46015;BME280;36844;51.898;-0.874;2022-11-23T08:54:34;97379.56;;;17.65;
46015;BME280;36844;51.898;-0.874;2022-11-23T08:56:59;97405.25;;;17.66;
46015;BME280;36844;51.898;-0.874;2022-11-23T08:59:24;97438.28;;;17.66;
46015;BME280;36844;51.898;-0.874;2022-11-23T09:01:50;97447.06;;;17.67;
46015;BME280;36844;51.898;-0.874;2022-11-23T09:04:15;97446.34;;;17.66;
46015;BME280;36844;51.898;-0.874;2022-11-23T09:06:40;97462.50;;;17.66;
46015;BME280;36844;51.898;-0.874;2022-11-23T09:09:05;97465.19;;;17.66;
46015;BME280;36844;51.898;-0.874;2022-11-23T09:11:30;97466.41;;;17.65;
46015;BME280;36844;51.898;-0.874;2022-11-23T09:13:56;97478.63;;;17.66;
46015;BME280;36844;51.898;-0.874;2022-11-23T09:16:21;97475.19;;;17.66;
46015;BME280;36844;51.898;-0.874;2022-11-23T09:18:46;97482.06;;;17.67;
46015;BME280;36844;51.898;-0.874;2022-11-23T09:21:13;97473.97;;;17.67;
46015;BME280;36844;51.898;-0.874;2022-11-23T09:23:38;97477.41;;;17.67;
46015;BME280;36844;51.898;-0.874;2022-11-23T09:26:04;97482.06;;;17.67;
46015;BME280;36844;51.898;-0.874;2022-11-23T09:28:29;97493.56;;;17.67;
46015;BME280;36844;51.898;-0.874;2022-11-23T09:30:55;97490.88;;;17.67;
46015;BME280;36844;51.898;-0.874;2022-11-23T09:33:21;97484.31;;;17.68;
46015;BME280;36844;51.898;-0.874;2022-11-23T09:35:46;97482.34;;;17.69;
46015;BME280;36844;51.898;-0.874;2022-11-23T09:38:11;97487.00;;;17.68;
46015;BME280;36844;51.898;-0.874;2022-11-23T09:40:38;97489.69;;;17.68;
46015;BME280;36844;51.898;-0.874;2022-11-23T09:45:53;97503.88;;;17.69;
46015;BME280;36844;51.898;-0.874;2022-11-23T09:48:38;97507.78;;;17.68;
46015;BME280;36844;51.898;-0.874;2022-11-23T09:51:18;97505.06;;;17.68;
46015;BME280;36844;51.898;-0.874;2022-11-23T09:53:59;97509.28;;;17.69;
46015;BME280;36844;51.898;-0.874;2022-11-23T09:56:31;97522.72;;;17.69;
46015;BME280;36844;51.898;-0.874;2022-11-23T09:58:58;97524.66;;;17.68;
46015;BME280;36844;51.898;-0.874;2022-11-23T10:01:24;97541.56;;;17.69;
46015;BME280;36844;51.898;-0.874;2022-11-23T10:03:51;97556.94;;;17.68;
46015;BME280;36844;51.898;-0.874;2022-11-23T10:08:54;97568.00;;;17.70;
46015;BME280;36844;51.898;-0.874;2022-11-23T10:24:15;97611.34;;;17.72;
46015;BME280;36844;51.898;-0.874;2022-11-23T10:26:44;97616.72;;;17.72;
46015;BME280;36844;51.898;-0.874;2022-11-23T10:31:48;97632.84;;;17.72;
46015;BME280;36844;51.898;-0.874;2022-11-23T10:34:15;97645.84;;;17.74;
46015;BME280;36844;51.898;-0.874;2022-11-23T10:36:41;97645.09;;;17.73;
46015;BME280;36844;51.898;-0.874;2022-11-23T10:39:26;97652.69;;;17.75;
46015;BME280;36844;51.898;-0.874;2022-11-23T10:41:51;97654.19;;;17.76;
46015;BME280;36844;51.898;-0.874;2022-11-23T10:46:43;97654.97;;;17.77;
46015;BME280;36844;51.898;-0.874;2022-11-23T10:51:39;97672.56;;;17.77;
46015;BME280;36844;51.898;-0.874;2022-11-23T10:56:56;97686.31;;;17.80;
46015;BME280;36844;51.898;-0.874;2022-11-23T10:59:25;97697.38;;;17.82;
46015;BME280;36844;51.898;-0.874;2022-11-23T11:02:24;97693.47;;;17.83;
46015;BME280;36844;51.898;-0.874;2022-11-23T11:04:43;97719.19;;;17.84;
46015;BME280;36844;51.898;-0.874;2022-11-23T11:07:09;97724.56;;;17.84;
46015;BME280;36844;51.898;-0.874;2022-11-23T11:09:35;97720.66;;;17.85;
46015;BME280;36844;51.898;-0.874;2022-11-23T11:12:00;97738.31;;;17.86;
46015;BME280;36844;51.898;-0.874;2022-11-23T11:14:25;97737.84;;;17.87;
46015;BME280;36844;51.898;-0.874;2022-11-23T11:16:55;97735.91;;;17.88;
46015;BME280;36844;51.898;-0.874;2022-11-23T11:21:47;97743.50;;;17.89;
46015;BME280;36844;51.898;-0.874;2022-11-23T11:24:16;97738.13;;;17.89;
46015;BME280;36844;51.898;-0.874;2022-11-23T11:26:49;97746.97;;;17.90;
46015;BME280;36844;51.898;-0.874;2022-11-23T11:30:00;97741.09;;;17.91;
46015;BME280;36844;51.898;-0.874;2022-11-23T11:32:05;97745.75;;;17.91;
46015;BME280;36844;51.898;-0.874;2022-11-23T11:34:38;97745.75;;;17.91;
46015;BME280;36844;51.898;-0.874;2022-11-23T11:39:37;97754.09;;;17.93;
46015;BME280;36844;51.898;-0.874;2022-11-23T11:42:06;97754.84;;;17.93;
46015;BME280;36844;51.898;-0.874;2022-11-23T11:44:34;97749.47;;;17.93;
46015;BME280;36844;51.898;-0.874;2022-11-23T11:47:09;97754.38;;;17.95;
46015;BME280;36844;51.898;-0.874;2022-11-23T11:49:39;97766.34;;;17.94;
46015;BME280;36844;51.898;-0.874;2022-11-23T11:52:07;97776.69;;;17.95;
46015;BME280;36844;51.898;-0.874;2022-11-23T11:54:36;97770.53;;;17.95;
46015;BME280;36844;51.898;-0.874;2022-11-23T11:57:06;97771.28;;;17.95;
46015;BME280;36844;51.898;-0.874;2022-11-23T11:59:35;97780.09;;;17.96;
46015;BME280;36844;51.898;-0.874;2022-11-23T12:09:38;97788.16;;;17.96;
46015;BME280;36844;51.898;-0.874;2022-11-23T12:12:07;97796.25;;;17.96;
46015;BME280;36844;51.898;-0.874;2022-11-23T12:14:36;97805.06;;;17.96;
46015;BME280;36844;51.898;-0.874;2022-11-23T12:19:38;97798.50;;;17.97;
46015;BME280;36844;51.898;-0.874;2022-11-23T12:22:28;97792.34;;;17.97;
46015;BME280;36844;51.898;-0.874;2022-11-23T12:25:05;97808.50;;;17.97;
46015;BME280;36844;51.898;-0.874;2022-11-23T12:32:49;97822.25;;;17.99;
46015;BME280;36844;51.898;-0.874;2022-11-23T12:37:59;97826.44;;;18.00;
46015;BME280;36844;51.898;-0.874;2022-11-23T12:40:35;97834.06;;;18.01;
46015;BME280;36844;51.898;-0.874;2022-11-23T12:51:22;97857.81;;;18.03;
46015;BME280;36844;51.898;-0.874;2022-11-23T12:58:58;97852.00;;;18.04;
46015;BME280;36844;51.898;-0.874;2022-11-23T13:01:31;97848.09;;;18.05;
46015;BME280;36844;51.898;-0.874;2022-11-23T13:15:05;97870.38;;;18.06;
46015;BME280;36844;51.898;-0.874;2022-11-23T13:22:35;97886.81;;;18.08;
46015;BME280;36844;51.898;-0.874;2022-11-23T13:42:53;97920.31;;;18.07;
46015;BME280;36844;51.898;-0.874;2022-11-23T13:50:29;97960.44;;;18.05;
46015;BME280;36844;51.898;-0.874;2022-11-23T13:52:54;97957.44;;;18.03;
46015;BME280;36844;51.898;-0.874;2022-11-23T13:55:21;97956.72;;;18.02;
46015;BME280;36844;51.898;-0.874;2022-11-23T13:58:34;97965.25;;;18.01;
46015;BME280;36844;51.898;-0.874;2022-11-23T14:06:00;97991.59;;;17.97;
46015;BME280;36844;51.898;-0.874;2022-11-23T14:08:25;98027.06;;;17.95;
46015;BME280;36844;51.898;-0.874;2022-11-23T14:10:51;98014.78;;;17.94;
46015;BME280;36844;51.898;-0.874;2022-11-23T14:13:18;97999.84;;;17.93;
46015;BME280;36844;51.898;-0.874;2022-11-23T14:15:50;98001.78;;;17.93;
46015;BME280;36844;51.898;-0.874;2022-11-23T14:23:49;98001.47;;;17.91;
46015;BME280;36844;51.898;-0.874;2022-11-23T14:28:53;97988.47;;;17.89;
46015;BME280;36844;51.898;-0.874;2022-11-23T14:42:25;97995.81;;;17.89;
46015;BME280;36844;51.898;-0.874;2022-11-23T14:44:51;98000.00;;;17.90;
46015;BME280;36844;51.898;-0.874;2022-11-23T14:47:24;97998.78;;;17.91;
46015;BME280;36844;51.898;-0.874;2022-11-23T14:49:50;97991.00;;;17.93;
46015;BME280;36844;51.898;-0.874;2022-11-23T14:52:17;97997.16;;;17.93;
46015;BME280;36844;51.898;-0.874;2022-11-23T14:54:45;98003.53;;;17.96;
46015;BME280;36844;51.898;-0.874;2022-11-23T14:57:11;98013.59;;;17.95;
46015;BME280;36844;51.898;-0.874;2022-11-23T14:59:37;98042.28;;;17.98;
46015;BME280;36844;51.898;-0.874;2022-11-23T15:02:05;98065.31;;;17.99;
46015;BME280;36844;51.898;-0.874;2022-11-23T15:04:38;98061.44;;;18.00;
46015;BME280;36844;51.898;-0.874;2022-11-23T15:07:16;98080.59;;;18.02;
46015;BME280;36844;51.898;-0.874;2022-11-23T15:09:47;98076.69;;;18.03;
46015;BME280;36844;51.898;-0.874;2022-11-23T15:12:21;98057.41;;;18.05;
46015;BME280;36844;51.898;-0.874;2022-11-23T15:14:47;98040.03;;;18.06;
46015;BME280;36844;51.898;-0.874;2022-11-23T15:17:13;98031.94;;;18.06;
46015;BME280;36844;51.898;-0.874;2022-11-23T15:19:39;98026.84;;;18.08;
46015;BME280;36844;51.898;-0.874;2022-11-23T15:22:15;98033.75;;;18.09;
46015;BME280;36844;51.898;-0.874;2022-11-23T15:24:42;98033.25;;;18.10;
46015;BME280;36844;51.898;-0.874;2022-11-23T15:27:08;98040.91;;;18.12;
46015;BME280;36844;51.898;-0.874;2022-11-23T15:29:38;98051.94;;;18.14;
46015;BME280;36844;51.898;-0.874;2022-11-23T15:32:18;98048.06;;;18.15;
46015;BME280;36844;51.898;-0.874;2022-11-23T15:34:44;98053.75;;;18.17;
46015;BME280;36844;51.898;-0.874;2022-11-23T15:37:10;98064.06;;;18.18;
46015;BME280;36844;51.898;-0.874;2022-11-23T15:39:35;98064.38;;;18.20;
46015;BME280;36844;51.898;-0.874;2022-11-23T15:42:01;98076.19;;;18.23;
46015;BME280;36844;51.898;-0.874;2022-11-23T15:44:28;98070.31;;;18.24;
46015;BME280;36844;51.898;-0.874;2022-11-23T15:46:57;98063.72;;;18.25;
46015;BME280;36844;51.898;-0.874;2022-11-23T15:49:23;98070.88;;;18.28;
46015;BME280;36844;51.898;-0.874;2022-11-23T15:51:49;98077.78;;;18.29;
46015;BME280;36844;51.898;-0.874;2022-11-23T15:54:20;98081.53;;;18.32;
46015;BME280;36844;51.898;-0.874;2022-11-23T15:56:46;98087.19;;;18.34;